Time;durP1;ratioP1;P1;durP2;ratioP2;P2;SDS_P1;SDS_P2;PMS_P1;PMS_P2;Temp;Humidity;BMP_temperature;BMP_pressure;BME280_temperature;BME280_humidity;BME280_pressure;Samples;Min_cycle;Max_cycle;Signal;HPM_P1;HPM_P2
2023/12/19 10:02:47;;;;;;;18.00;12.00;;;;;;;2.42;100.00;99700.88;5142805;27;20565;-87
2023/12/19 10:05:15;;;;;;;13.17;9.63;;;;;;;2.98;100.00;99685.06;5092176;28;38949;-87
2023/12/19 10:07:43;;;;;;;12.03;9.07;;;;;;;3.62;100.00;99702.97;5091901;28;43402;-87
2023/12/19 10:10:11;;;;;;;10.93;8.87;;;;;;;4.09;100.00;99708.94;5091463;28;42029;-87
2023/12/19 10:12:49;;;;;;;12.43;8.83;;;;;;;4.38;100.00;99703.03;5075278;28;41630;-87
2023/12/19 10:15:16;;;;;;;12.80;9.87;;;;;;;4.33;100.00;99650.69;5092231;28;38957;-88
2023/12/19 10:18:05;;;;;;;13.83;9.10;;;;;;;4.69;100.00;99678.66;5091874;28;41134;-87
2023/12/19 10:20:37;;;;;;;13.37;9.53;;;;;;;4.87;100.00;99684.28;5091142;28;42618;-88
2023/12/19 10:23:10;;;;;;;12.43;8.87;;;;;;;5.14;100.00;99686.19;5074976;28;42308;-88
2023/12/19 10:25:37;;;;;;;13.23;8.90;;;;;;;5.58;100.00;99702.47;5091659;28;40258;-87
2023/12/19 10:28:08;;;;;;;11.30;8.83;;;;;;;6.07;100.00;99708.00;5074174;28;40711;-87
2023/12/19 10:30:36;;;;;;;12.00;9.23;;;;;;;6.10;100.00;99668.47;5091273;28;42117;-89
2023/12/19 10:33:06;;;;;;;14.50;9.80;;;;;;;6.21;100.00;99651.50;5090708;28;41229;-88
2023/12/19 10:35:38;;;;;;;14.43;9.17;;;;;;;6.67;99.38;99691.22;5091025;28;39806;-89
2023/12/19 10:38:05;;;;;;;12.27;9.00;;;;;;;6.89;97.49;99677.31;5129148;27;40825;-87
2023/12/19 10:40:33;;;;;;;12.07;8.73;;;;;;;7.35;96.26;99703.75;5132109;27;41795;-87
2023/12/19 10:43:17;;;;;;;11.13;8.63;;;;;;;7.58;94.54;99690.59;5148807;27;42268;-88
2023/12/19 10:45:44;;;;;;;9.43;7.73;;;;;;;7.53;90.01;99660.91;5148150;27;38886;-88
2023/12/19 10:48:14;;;;;;;9.20;7.20;;;;;;;7.73;89.23;99677.75;5130900;27;40083;-88
2023/12/19 10:50:42;;;;;;;8.83;7.00;;;;;;;7.89;87.28;99689.44;5131879;27;42442;-88
2023/12/19 10:53:40;;;;;;;11.90;8.33;;;;;;;7.97;84.87;99695.28;5132024;27;42496;-89
2023/12/19 10:56:31;;;;;;;9.30;6.60;;;;;;;7.82;86.08;99637.84;5131841;27;38540;-88
2023/12/19 11:02:07;;;;;;;9.33;7.63;;;;;;;8.41;82.18;99682.13;5128422;27;41686;-90
2023/12/19 11:04:49;;;;;;;11.70;8.30;;;;;;;8.09;80.80;99649.09;5131701;27;42132;-89
2023/12/19 11:07:27;;;;;;;10.37;7.47;;;;;;;8.13;81.10;99666.53;5131937;27;38751;-90
2023/12/19 11:10:32;;;;;;;11.77;7.93;;;;;;;7.94;76.40;99676.94;5148590;27;40836;-90
2023/12/19 11:13:01;;;;;;;7.73;6.67;;;;;;;8.00;80.26;99666.16;5120920;27;41709;-89
2023/12/19 11:16:07;;;;;;;8.63;6.40;;;;;;;7.94;79.83;99626.81;5117525;27;40927;-90
2023/12/19 11:23:44;;;;;;;8.23;5.70;;;;;;;7.99;79.72;99622.22;5136007;27;42522;-89
2023/12/19 11:26:23;;;;;;;6.73;5.00;;;;;;;7.89;79.32;99590.09;5117851;27;42549;-90
2023/12/19 11:29:30;;;;;;;8.33;5.73;;;;;;;8.26;74.83;99638.72;5117811;27;41165;-90
2023/12/19 11:32:45;;;;;;;7.90;5.03;;;;;;;8.16;75.17;99603.91;5131640;27;39338;-90
2023/12/19 11:35:50;;;;;;;6.20;4.70;;;;;;;8.09;70.90;99601.59;5117248;27;41278;-90
2023/12/19 11:38:30;;;;;;;6.87;4.83;;;;;;;8.26;70.86;99626.41;5116952;27;43085;-90
2023/12/19 11:44:11;;;;;;;6.77;4.93;;;;;;;8.06;72.53;99570.06;5469582;23;20222;-90
2023/12/19 12:11:54;;;;;;;7.33;4.67;;;;;;;8.00;70.27;99539.53;4976500;28;41631;-91
2023/12/19 12:15:37;;;;;;;7.47;4.70;;;;;;;8.17;69.38;99568.69;4939105;28;41795;-91
2023/12/19 12:28:25;;;;;;;5.63;4.23;;;;;;;7.84;71.08;99526.13;4917142;29;40541;-90
2023/12/19 12:31:43;;;;;;;6.80;4.67;;;;;;;7.49;71.73;99461.66;4901933;29;41070;-90
2023/12/19 12:38:17;;;;;;;7.27;4.60;;;;;;;7.98;72.08;99551.94;4900799;29;42148;-90
2023/12/19 12:54:30;;;;;;;6.67;4.80;;;;;;;7.87;73.47;99448.66;4993703;28;42265;-90
2023/12/19 12:57:38;;;;;;;5.90;4.20;;;;;;;8.12;73.06;99486.28;4977157;28;43251;-90
2023/12/19 13:00:44;;;;;;;5.33;4.10;;;;;;;8.19;73.89;99471.88;4959384;28;41808;-90
2023/12/19 13:03:32;;;;;;;5.77;4.67;;;;;;;8.00;73.99;99443.72;4942562;28;41165;-90
2023/12/19 13:06:05;;;;;;;6.73;4.43;;;;;;;8.15;74.08;99470.31;4958416;28;42135;-91
2023/12/19 13:16:21;;;;;;;6.83;4.50;;;;;;;7.84;75.13;99443.50;5010033;28;42443;-90
2023/12/19 13:19:37;;;;;;;6.47;4.10;;;;;;;7.94;75.64;99450.09;4995525;28;42824;-90
2023/12/19 13:22:17;;;;;;;5.77;4.20;;;;;;;7.65;75.54;99400.41;4995686;28;41262;-90
2023/12/19 13:24:46;;;;;;;5.97;4.50;;;;;;;7.87;75.66;99436.34;4995783;28;39480;-90
2023/12/19 13:27:35;;;;;;;5.50;4.03;;;;;;;7.85;75.82;99434.69;5011164;28;40524;-90
2023/12/19 13:33:41;;;;;;;5.80;4.20;;;;;;;7.85;76.78;99422.34;4994218;28;41337;-90
2023/12/19 13:36:29;;;;;;;6.63;4.57;;;;;;;7.69;77.01;99388.78;4994805;28;39340;-90
2023/12/19 13:38:57;;;;;;;5.77;4.20;;;;;;;7.87;76.60;99422.28;4994980;28;41667;-90
2023/12/19 13:41:25;;;;;;;5.47;4.03;;;;;;;7.66;76.76;99386.31;5010796;28;41868;-89
2023/12/19 13:44:21;;;;;;;6.27;4.17;;;;;;;7.91;76.96;99413.34;4995243;28;40859;-90
2023/12/19 13:46:54;;;;;;;5.73;3.90;;;;;;;7.57;76.80;99362.03;4995428;28;39385;-90
2023/12/19 13:49:28;;;;;;;5.93;4.20;;;;;;;7.89;77.12;99418.69;4995178;28;41057;-90
